Time;durP1;ratioP1;P1;durP2;ratioP2;P2;SDS_P1;SDS_P2;PMS_P1;PMS_P2;Temp;Humidity;BMP_temperature;BMP_pressure;BME280_temperature;BME280_humidity;BME280_pressure;Samples;Min_cycle;Max_cycle;Signal;HPM_P1;HPM_P2
2023/09/15 00:01:40;;;;;;;16.90;14.90;;;;;;;21.19;66.75;100376.29;105221;1255;63722;-61
2023/09/15 00:04:09;;;;;;;19.10;16.00;;;;;;;21.22;66.83;100373.06;105519;1257;60477;-65
2023/09/15 00:06:37;;;;;;;21.80;16.80;;;;;;;21.24;66.97;100368.89;105654;1254;64303;-62
2023/09/15 00:09:06;;;;;;;18.60;16.60;;;;;;;21.21;67.01;100368.45;105739;1252;60448;-63
2023/09/15 00:11:40;;;;;;;19.20;16.40;;;;;;;21.14;67.11;100369.01;105612;1253;60501;-64
2023/09/15 00:14:12;;;;;;;20.50;17.80;;;;;;;21.05;67.53;100367.65;105271;1252;64932;-63
2023/09/15 00:16:41;;;;;;;19.70;17.50;;;;;;;20.96;67.96;100369.33;105460;1253;61429;-62
2023/09/15 00:19:13;;;;;;;22.60;17.60;;;;;;;20.87;68.43;100367.27;105645;1257;63762;-64
2023/09/15 00:21:42;;;;;;;21.20;18.30;;;;;;;20.77;69.17;100368.58;105435;1255;60483;-64
2023/09/15 00:24:10;;;;;;;21.00;18.10;;;;;;;20.74;69.62;100372.69;105476;1257;60455;-63
2023/09/15 00:26:38;;;;;;;25.90;20.20;;;;;;;20.70;69.74;100374.60;105298;1258;64540;-61
2023/09/15 00:29:07;;;;;;;24.20;21.10;;;;;;;20.64;70.17;100376.12;105652;1253;64247;-61
2023/09/15 00:31:36;;;;;;;25.10;20.70;;;;;;;20.59;70.47;100377.40;105674;1256;63841;-62
2023/09/15 00:34:04;;;;;;;24.80;20.20;;;;;;;20.59;70.65;100382.22;104980;1260;60644;-62
2023/09/15 00:36:32;;;;;;;27.20;19.60;;;;;;;20.60;70.76;100382.06;105887;1253;60502;-62
2023/09/15 00:39:01;;;;;;;28.10;21.30;;;;;;;20.61;70.98;100377.14;105417;1256;67173;-62
2023/09/15 00:41:29;;;;;;;25.60;21.50;;;;;;;20.61;71.09;100377.50;105403;1257;61746;-62
2023/09/15 00:43:57;;;;;;;27.10;21.50;;;;;;;20.61;71.17;100380.38;105137;1256;63741;-63
2023/09/15 00:46:24;;;;;;;24.40;21.50;;;;;;;20.62;71.32;100383.15;105864;1256;61063;-63
2023/09/15 00:48:55;;;;;;;29.40;22.30;;;;;;;20.61;71.48;100381.20;105922;1252;61528;-64
2023/09/15 00:51:24;;;;;;;27.20;22.70;;;;;;;20.63;71.74;100378.93;106649;1253;65008;-67
2023/09/15 00:53:54;;;;;;;32.90;24.50;;;;;;;20.63;71.82;100379.48;106813;1253;61907;-68
2023/09/15 00:56:21;;;;;;;30.50;25.10;;;;;;;20.60;72.04;100380.33;106021;1256;62491;-69
2023/09/15 00:58:49;;;;;;;29.70;24.30;;;;;;;20.54;72.31;100379.93;105202;1253;60585;-69
2023/09/15 01:01:18;;;;;;;29.50;25.60;;;;;;;20.52;72.35;100387.27;105279;1253;60563;-69
2023/09/15 01:03:46;;;;;;;30.20;25.70;;;;;;;20.50;72.59;100391.11;105284;1258;65535;-63
2023/09/15 01:06:13;;;;;;;30.30;25.70;;;;;;;20.46;73.02;100396.09;105422;1258;61376;-66
2023/09/15 01:08:41;;;;;;;30.00;25.90;;;;;;;20.41;73.37;100399.77;105246;1253;62594;-68
2023/09/15 01:11:10;;;;;;;31.30;25.60;;;;;;;20.37;73.86;100400.00;105682;1254;60454;-60
2023/09/15 01:13:37;;;;;;;32.30;25.30;;;;;;;20.37;73.97;100403.70;105776;1252;60537;-59
2023/09/15 01:16:24;;;;;;;27.30;24.00;;;;;;;20.37;74.39;100406.05;105667;1253;64903;-59
2023/09/15 01:18:58;;;;;;;32.20;24.10;;;;;;;20.37;74.54;100408.71;105935;1253;61660;-59
2023/09/15 01:21:55;;;;;;;30.30;25.50;;;;;;;20.38;74.78;100407.20;105595;1254;63863;-57
2023/09/15 01:24:26;;;;;;;30.90;23.10;;;;;;;20.52;75.03;100410.38;105007;1254;63969;-57
2023/09/15 01:27:31;;;;;;;30.90;24.90;;;;;;;20.65;74.92;100409.65;106416;1252;60455;-57
2023/09/15 01:29:59;;;;;;;28.30;25.00;;;;;;;20.77;74.50;100412.34;105718;1256;65580;-61
2023/09/15 01:32:26;;;;;;;26.30;23.30;;;;;;;20.83;74.23;100413.52;105200;1253;63095;-58
2023/09/15 01:34:54;;;;;;;27.00;23.70;;;;;;;20.88;73.81;100415.21;105224;1258;64047;-58
2023/09/15 01:37:23;;;;;;;25.60;22.90;;;;;;;20.94;73.58;100414.33;105205;1253;60439;-59
2023/09/15 01:39:52;;;;;;;28.00;23.10;;;;;;;21.00;73.35;100416.45;106077;1259;62161;-58
2023/09/15 01:42:20;;;;;;;29.00;24.60;;;;;;;21.04;72.93;100416.82;105166;1252;66766;-58
2023/09/15 01:44:48;;;;;;;28.20;25.20;;;;;;;21.08;72.63;100412.95;105038;1258;60454;-57
2023/09/15 01:47:18;;;;;;;28.40;24.80;;;;;;;21.08;72.38;100415.75;105192;1258;62447;-51
2023/09/15 01:49:46;;;;;;;26.20;23.40;;;;;;;21.05;72.27;100420.65;104941;1253;60553;-56
2023/09/15 01:52:13;;;;;;;28.70;23.80;;;;;;;21.01;72.21;100425.38;105324;1253;60527;-56
2023/09/15 01:54:41;;;;;;;26.20;22.20;;;;;;;20.99;72.30;100426.19;105183;1254;64867;-50
2023/09/15 01:57:10;;;;;;;24.90;21.80;;;;;;;20.98;72.33;100429.11;105331;1257;60679;-51
2023/09/15 01:59:37;;;;;;;24.70;20.60;;;;;;;20.96;72.34;100431.81;106318;1253;74407;-53
2023/09/15 02:02:05;;;;;;;24.80;21.10;;;;;;;20.96;72.52;100433.20;105630;1258;60563;-56
2023/09/15 02:04:33;;;;;;;21.10;18.30;;;;;;;20.98;72.51;100435.94;105478;1253;60362;-52
2023/09/15 02:07:00;;;;;;;23.70;18.10;;;;;;;21.00;72.52;100443.02;105426;1255;64934;-56
2023/09/15 02:09:28;;;;;;;23.00;18.90;;;;;;;21.00;72.28;100446.02;105180;1253;61764;-55
2023/09/15 02:11:55;;;;;;;20.40;17.20;;;;;;;20.97;72.13;100444.44;105304;1253;63991;-58
2023/09/15 02:14:23;;;;;;;20.30;16.80;;;;;;;20.91;72.25;100446.52;105250;1258;60977;-54
2023/09/15 02:16:51;;;;;;;18.10;16.10;;;;;;;20.89;72.11;100445.67;105307;1256;60449;-56
2023/09/15 02:19:19;;;;;;;18.50;14.90;;;;;;;20.88;72.06;100446.56;105119;1253;65015;-55
2023/09/15 02:21:46;;;;;;;17.80;14.10;;;;;;;20.84;71.96;100452.48;105151;1253;61313;-56
2023/09/15 02:24:15;;;;;;;18.90;14.10;;;;;;;20.81;71.93;100453.64;105171;1256;64197;-55
2023/09/15 02:26:42;;;;;;;17.70;14.10;;;;;;;20.82;71.71;100453.70;105269;1253;60530;-53
2023/09/15 02:29:10;;;;;;;18.40;14.00;;;;;;;20.81;71.74;100460.12;105320;1253;61996;-54
2023/09/15 02:31:40;;;;;;;16.10;13.40;;;;;;;20.77;71.68;100459.58;105678;1256;64870;-52
2023/09/15 02:34:07;;;;;;;14.90;12.80;;;;;;;20.71;71.41;100463.77;105372;1253;61908;-60
2023/09/15 02:36:35;;;;;;;17.00;13.20;;;;;;;20.67;71.45;100461.66;105857;1253;62563;-61
2023/09/15 02:39:03;;;;;;;15.60;11.90;;;;;;;20.67;71.59;100463.93;105399;1253;60542;-59
2023/09/15 02:41:31;;;;;;;17.20;12.80;;;;;;;20.66;71.48;100464.69;106540;1253;60479;-63
2023/09/15 02:44:02;;;;;;;14.00;11.90;;;;;;;20.62;71.56;100466.82;105257;1258;64926;-61
2023/09/15 02:46:30;;;;;;;14.10;12.20;;;;;;;20.54;71.60;100471.89;105247;1253;60675;-70
2023/09/15 02:48:59;;;;;;;16.90;11.70;;;;;;;20.48;71.88;100477.40;105040;1253;62558;-67
2023/09/15 02:51:27;;;;;;;12.70;11.30;;;;;;;20.50;71.93;100477.02;105698;1254;60548;-69
2023/09/15 02:53:54;;;;;;;13.90;11.00;;;;;;;20.52;71.56;100479.47;105166;1256;60406;-69
2023/09/15 02:56:23;;;;;;;16.60;11.70;;;;;;;20.53;71.52;100481.33;105104;1258;63675;-69
2023/09/15 02:58:51;;;;;;;13.60;11.70;;;;;;;20.56;71.40;100483.02;106074;1254;61316;-69
2023/09/15 03:01:20;;;;;;;16.90;11.70;;;;;;;20.58;71.32;100486.88;105284;1256;63656;-68
2023/09/15 03:03:49;;;;;;;13.30;11.30;;;;;;;20.56;71.15;100485.73;107649;1253;60405;-60
2023/09/15 03:06:19;;;;;;;13.20;10.40;;;;;;;20.57;71.03;100486.89;105109;1258;60604;-61
2023/09/15 03:08:47;;;;;;;16.30;12.00;;;;;;;20.59;70.82;100488.56;105451;1253;63930;-63
2023/09/15 03:11:18;;;;;;;13.40;10.60;;;;;;;20.58;70.92;100490.25;105458;1253;61474;-65
2023/09/15 03:13:47;;;;;;;13.60;11.20;;;;;;;20.57;70.87;100491.30;105382;1253;63806;-62
2023/09/15 03:16:15;;;;;;;12.60;11.10;;;;;;;20.56;70.83;100493.20;105290;1257;60499;-69
2023/09/15 03:18:46;;;;;;;13.80;11.20;;;;;;;20.53;70.92;100495.68;105561;1253;60462;-69
2023/09/15 03:21:17;;;;;;;12.00;10.60;;;;;;;20.52;71.05;100499.33;105176;1258;67254;-63
2023/09/15 03:23:47;;;;;;;14.90;10.90;;;;;;;20.55;70.88;100499.91;105171;1258;61793;-62
2023/09/15 03:26:14;;;;;;;11.10;9.80;;;;;;;20.59;70.69;100504.61;108655;1256;63716;-67
2023/09/15 03:28:45;;;;;;;13.40;9.90;;;;;;;20.64;70.62;100501.77;105324;1253;60606;-62
2023/09/15 03:31:13;;;;;;;13.50;11.20;;;;;;;20.64;70.42;100502.80;105093;1258;60438;-61
2023/09/15 03:33:41;;;;;;;13.80;11.00;;;;;;;20.58;70.21;100507.42;106341;1253;63684;-62
2023/09/15 03:36:10;;;;;;;13.60;10.50;;;;;;;20.45;70.35;100510.91;105384;1253;61345;-66
2023/09/15 03:38:38;;;;;;;13.50;10.50;;;;;;;20.34;70.78;100515.40;105017;1258;62417;-61
2023/09/15 03:41:06;;;;;;;13.00;10.20;;;;;;;20.32;70.88;100516.48;105361;1259;62145;-59
2023/09/15 03:43:33;;;;;;;12.10;10.40;;;;;;;20.30;71.10;100523.04;105153;1255;60614;-58
2023/09/15 03:46:02;;;;;;;12.60;10.20;;;;;;;20.31;71.32;100525.09;105749;1253;65371;-58
2023/09/15 03:48:31;;;;;;;14.60;10.80;;;;;;;20.34;71.45;100524.36;105879;1259;60470;-67
2023/09/15 03:50:59;;;;;;;14.40;11.20;;;;;;;20.35;71.32;100527.50;105126;1258;63756;-59
2023/09/15 03:53:27;;;;;;;13.30;11.80;;;;;;;20.32;71.32;100529.44;105765;1253;60542;-55
2023/09/15 03:55:55;;;;;;;16.50;13.10;;;;;;;20.28;71.44;100534.36;105209;1252;60444;-55
2023/09/15 03:58:23;;;;;;;17.60;11.00;;;;;;;20.28;71.64;100537.20;105186;1256;64958;-56
2023/09/15 04:00:51;;;;;;;13.70;11.90;;;;;;;20.32;71.50;100540.86;105312;1253;61299;-56
2023/09/15 04:03:20;;;;;;;14.60;12.00;;;;;;;20.39;71.54;100545.73;105714;1253;394149;-59
2023/09/15 04:18:01;;;;;;;16.10;12.20;;;;;;;20.68;70.82;100551.88;103080;1287;604322;-60
2023/09/15 04:20:31;;;;;;;14.40;12.90;;;;;;;21.00;69.28;100556.81;104152;1266;204439;-61
2023/09/15 04:23:14;;;;;;;17.30;12.40;;;;;;;20.88;69.41;100561.61;104488;1273;59943;-58
2023/09/15 04:25:42;;;;;;;15.20;12.20;;;;;;;20.79;69.59;100563.97;104329;1266;63254;-58
2023/09/15 04:28:11;;;;;;;17.60;13.20;;;;;;;20.71;69.86;100568.75;105466;1267;61420;-69
2023/09/15 04:30:42;;;;;;;18.20;12.50;;;;;;;20.65;70.14;100570.77;106631;1267;63730;-67
2023/09/15 04:33:15;;;;;;;15.90;12.70;;;;;;;20.67;70.51;100573.25;104719;1269;59263;-62
2023/09/15 04:35:48;;;;;;;15.20;12.90;;;;;;;20.74;70.65;100572.57;104402;1268;59394;-65
2023/09/15 04:38:25;;;;;;;19.10;15.40;;;;;;;20.80;70.47;100571.46;104653;1272;64061;-65
2023/09/15 04:40:56;;;;;;;18.60;14.30;;;;;;;20.82;70.34;100572.34;104511;1266;60422;-57
2023/09/15 04:43:30;;;;;;;19.90;14.90;;;;;;;20.84;70.20;100574.36;105082;1267;65669;-62
2023/09/15 04:45:58;;;;;;;18.00;14.40;;;;;;;20.89;70.15;100572.39;104376;1273;59785;-61
2023/09/15 04:48:26;;;;;;;16.10;14.40;;;;;;;20.95;70.24;100568.61;103771;1267;59680;-59
2023/09/15 04:50:54;;;;;;;19.10;15.80;;;;;;;21.02;70.01;100570.97;103803;1271;63234;-65
2023/09/15 04:53:22;;;;;;;20.50;16.80;;;;;;;21.02;69.86;100569.73;103905;1267;61503;-64
2023/09/15 04:55:50;;;;;;;22.90;16.90;;;;;;;20.95;69.98;100570.75;103892;1267;64279;-57
2023/09/15 04:58:17;;;;;;;20.30;16.50;;;;;;;20.92;70.14;100572.38;103931;1266;59673;-56
2023/09/15 05:00:48;;;;;;;22.40;16.50;;;;;;;20.91;70.26;100572.10;108238;1266;57709;-56
2023/09/15 05:03:15;;;;;;;19.00;16.00;;;;;;;20.90;70.12;100573.85;108183;1267;64112;-57
2023/09/15 05:05:45;;;;;;;23.90;17.90;;;;;;;20.86;70.17;100577.83;107487;1271;61522;-57
2023/09/15 05:08:13;;;;;;;23.10;18.30;;;;;;;20.82;70.35;100577.98;104350;1267;63790;-56
2023/09/15 05:10:41;;;;;;;23.00;18.60;;;;;;;20.81;70.42;100583.36;104213;1266;59666;-58
2023/09/15 05:13:09;;;;;;;21.60;17.10;;;;;;;20.85;70.33;100585.11;105505;1266;59651;-57
2023/09/15 05:15:39;;;;;;;22.70;17.90;;;;;;;20.92;70.08;100587.71;104665;1269;64087;-59
2023/09/15 05:18:07;;;;;;;23.70;19.00;;;;;;;20.95;70.06;100592.25;104275;1272;60274;-58
2023/09/15 05:20:34;;;;;;;25.60;20.40;;;;;;;21.01;70.06;100596.48;104181;1267;63778;-59
2023/09/15 05:23:03;;;;;;;22.10;18.40;;;;;;;21.01;70.11;100594.68;104723;1271;60064;-59
2023/09/15 05:25:30;;;;;;;24.90;19.90;;;;;;;20.95;69.97;100595.52;104298;1271;59570;-56
2023/09/15 05:27:58;;;;;;;23.30;19.30;;;;;;;20.87;70.13;100594.52;104984;1266;64906;-57
2023/09/15 05:30:26;;;;;;;22.00;17.30;;;;;;;20.84;70.44;100597.52;104302;1267;68749;-57
2023/09/15 05:32:55;;;;;;;25.30;18.30;;;;;;;20.89;70.66;100598.04;104393;1267;63723;-60
2023/09/15 05:35:26;;;;;;;24.00;21.20;;;;;;;20.97;70.57;100604.40;104593;1266;59631;-60
2023/09/15 05:37:55;;;;;;;23.30;19.30;;;;;;;21.09;70.34;100608.99;108687;1260;57697;-58
2023/09/15 05:40:24;;;;;;;25.30;20.70;;;;;;;21.24;70.26;100615.20;108663;1260;64339;-58
2023/09/15 05:42:54;;;;;;;24.70;21.00;;;;;;;21.37;69.72;100617.52;108631;1263;60569;-59
2023/09/15 05:45:22;;;;;;;25.50;21.30;;;;;;;21.47;69.50;100617.04;108761;1260;62469;-55
2023/09/15 05:47:50;;;;;;;24.60;21.90;;;;;;;21.55;69.08;100622.79;108713;1261;57719;-57
2023/09/15 05:50:20;;;;;;;26.20;19.90;;;;;;;21.64;68.42;100615.58;105296;1260;59317;-54
2023/09/15 05:52:50;;;;;;;23.20;19.40;;;;;;;21.71;67.99;100618.95;105652;1260;64688;-56
2023/09/15 05:55:18;;;;;;;22.10;19.50;;;;;;;21.77;67.52;100623.30;105119;1256;61372;-55
2023/09/15 05:57:45;;;;;;;24.70;19.30;;;;;;;21.75;66.65;100623.98;104849;1256;63803;-56
2023/09/15 06:00:13;;;;;;;22.30;18.60;;;;;;;21.68;66.82;100626.39;105134;1258;59764;-56
2023/09/15 06:02:43;;;;;;;25.50;19.80;;;;;;;21.66;67.24;100624.38;105369;1259;59662;-56
2023/09/15 06:05:10;;;;;;;20.50;17.60;;;;;;;21.68;67.18;100626.27;105143;1257;64289;-58
2023/09/15 06:07:38;;;;;;;20.50;17.50;;;;;;;21.69;67.25;100624.30;105288;1257;61370;-60
2023/09/15 06:10:07;;;;;;;23.40;16.80;;;;;;;21.76;67.02;100626.85;105431;1257;62554;-58
2023/09/15 06:12:34;;;;;;;22.50;18.40;;;;;;;21.83;66.36;100626.95;105522;1257;60021;-62
2023/09/15 06:15:03;;;;;;;22.10;18.80;;;;;;;21.85;66.36;100629.77;105066;1260;59669;-61
2023/09/15 06:17:30;;;;;;;18.80;15.80;;;;;;;21.87;66.33;100634.98;105488;1261;64131;-61
2023/09/15 06:19:58;;;;;;;21.30;16.80;;;;;;;21.92;66.22;100635.15;105137;1257;61398;-57
2023/09/15 06:22:26;;;;;;;21.70;18.50;;;;;;;21.95;65.58;100635.98;104991;1256;66149;-57
2023/09/15 06:24:54;;;;;;;20.10;16.30;;;;;;;21.94;65.56;100640.58;105686;1261;60450;-58
2023/09/15 06:27:21;;;;;;;20.10;17.90;;;;;;;21.90;65.84;100645.02;105169;1255;60426;-55
2023/09/15 06:29:49;;;;;;;20.30;17.30;;;;;;;21.86;65.92;100641.86;105059;1255;62858;-60
2023/09/15 06:32:16;;;;;;;19.60;15.50;;;;;;;21.86;65.84;100644.22;105161;1257;61511;-62
2023/09/15 06:34:44;;;;;;;17.50;15.50;;;;;;;21.89;66.00;100644.98;105205;1259;62798;-62
2023/09/15 06:37:12;;;;;;;18.60;16.40;;;;;;;21.95;66.01;100646.57;105407;1257;59995;-60
2023/09/15 06:39:40;;;;;;;22.90;17.30;;;;;;;21.95;65.00;100647.77;105059;1256;59711;-60
2023/09/15 06:42:08;;;;;;;21.00;17.70;;;;;;;21.90;64.87;100651.45;105117;1256;64113;-59
2023/09/15 06:44:40;;;;;;;19.50;16.90;;;;;;;21.85;64.99;100657.05;105299;1261;60136;-57
2023/09/15 06:47:07;;;;;;;23.10;18.20;;;;;;;21.83;65.17;100658.19;105131;1261;63794;-55
2023/09/15 06:49:36;;;;;;;22.60;17.10;;;;;;;21.82;65.11;100662.21;104928;1256;59710;-57
2023/09/15 06:52:05;;;;;;;22.10;18.40;;;;;;;21.80;65.12;100666.60;105408;1262;60695;-56
2023/09/15 06:54:32;;;;;;;22.10;16.70;;;;;;;21.77;65.22;100670.65;105388;1257;64202;-59
2023/09/15 06:57:00;;;;;;;19.30;16.50;;;;;;;21.76;65.12;100667.27;105732;1257;63993;-54
2023/09/15 06:59:28;;;;;;;21.50;16.20;;;;;;;21.77;65.26;100669.34;105013;1257;66236;-60
2023/09/15 07:01:56;;;;;;;23.50;17.90;;;;;;;21.79;65.42;100674.80;104858;1257;60215;-60
2023/09/15 07:04:23;;;;;;;22.00;16.80;;;;;;;21.82;65.23;100672.40;108954;1256;58432;-63
2023/09/15 07:06:51;;;;;;;20.50;15.30;;;;;;;21.88;65.06;100674.20;109094;1255;63113;-63
2023/09/15 07:09:19;;;;;;;22.50;16.50;;;;;;;21.95;64.80;100679.82;108987;1260;72640;-60
2023/09/15 07:11:46;;;;;;;17.70;14.90;;;;;;;21.97;64.32;100680.01;109041;1255;62443;-58
2023/09/15 07:14:14;;;;;;;20.50;15.90;;;;;;;21.97;63.99;100679.27;108924;1256;57793;-59
2023/09/15 07:16:43;;;;;;;17.70;14.80;;;;;;;21.96;64.05;100683.30;108788;1256;62058;-57
2023/09/15 07:19:11;;;;;;;18.90;13.80;;;;;;;22.01;64.06;100684.63;108854;1257;62950;-59
2023/09/15 07:21:40;;;;;;;19.50;15.40;;;;;;;22.09;64.13;100689.04;108916;1256;70277;-58
2023/09/15 07:24:08;;;;;;;17.20;14.80;;;;;;;22.18;63.75;100690.35;108902;1257;62953;-58
2023/09/15 07:26:36;;;;;;;17.40;14.50;;;;;;;22.21;63.28;100690.23;108943;1255;57815;-59
2023/09/15 07:29:03;;;;;;;18.60;14.80;;;;;;;22.20;62.85;100689.48;108931;1256;57703;-60
2023/09/15 07:31:33;;;;;;;16.20;14.40;;;;;;;22.16;62.79;100687.00;107114;1254;63142;-62
2023/09/15 07:34:01;;;;;;;18.10;14.10;;;;;;;22.12;62.93;100688.72;105088;1256;60138;-61
2023/09/15 07:36:29;;;;;;;16.50;14.80;;;;;;;22.05;63.12;100686.31;105657;1257;63126;-60
2023/09/15 07:38:56;;;;;;;20.30;15.30;;;;;;;21.96;63.43;100688.36;105044;1257;59692;-57
2023/09/15 07:41:25;;;;;;;18.20;14.60;;;;;;;21.88;64.01;100693.40;105260;1260;59567;-61
2023/09/15 07:43:57;;;;;;;18.10;14.30;;;;;;;21.83;63.90;100697.13;105519;1257;64668;-57
2023/09/15 07:46:26;;;;;;;17.10;12.40;;;;;;;21.78;64.14;100704.70;105084;1257;61798;-61
2023/09/15 07:48:54;;;;;;;18.30;14.60;;;;;;;21.72;64.65;100702.41;108975;1256;63720;-59
2023/09/15 07:51:21;;;;;;;14.90;12.30;;;;;;;21.62;65.05;100702.91;108922;1256;59128;-62
2023/09/15 07:53:49;;;;;;;16.00;12.50;;;;;;;21.55;65.54;100709.33;109036;1255;57648;-60
2023/09/15 07:56:16;;;;;;;16.20;13.70;;;;;;;21.51;65.79;100706.55;109096;1257;64108;-61
2023/09/15 07:58:44;;;;;;;16.40;13.40;;;;;;;21.49;65.70;100710.57;109093;1256;60096;-59
2023/09/15 08:01:11;;;;;;;16.20;12.40;;;;;;;21.47;65.57;100718.85;108992;1259;64223;-60
2023/09/15 08:03:39;;;;;;;13.60;12.20;;;;;;;21.49;65.48;100720.73;107057;1258;63950;-58
2023/09/15 08:06:07;;;;;;;15.60;11.30;;;;;;;21.55;65.40;100722.11;104943;1259;59588;-57
2023/09/15 08:08:35;;;;;;;15.70;11.80;;;;;;;21.62;65.12;100724.26;107184;1256;62840;-58
2023/09/15 08:11:02;;;;;;;14.80;12.80;;;;;;;21.67;64.72;100726.16;105247;1260;61372;-60
2023/09/15 08:13:30;;;;;;;14.90;11.30;;;;;;;21.66;64.42;100728.82;105278;1257;64311;-58
2023/09/15 08:15:59;;;;;;;13.30;9.70;;;;;;;21.67;64.53;100730.11;105700;1257;59555;-56
2023/09/15 08:18:27;;;;;;;14.40;11.10;;;;;;;21.67;63.96;100730.28;105093;1256;59784;-54
2023/09/15 08:20:55;;;;;;;15.80;11.50;;;;;;;21.64;63.89;100733.46;105807;1257;66670;-59
2023/09/15 08:23:23;;;;;;;14.10;11.20;;;;;;;21.61;64.20;100735.78;105248;1257;61683;-59
2023/09/15 08:25:51;;;;;;;15.80;10.10;;;;;;;21.58;64.28;100737.59;105066;1257;64946;-59
2023/09/15 08:28:19;;;;;;;13.80;11.50;;;;;;;21.60;64.43;100737.73;105256;1259;60523;-61
2023/09/15 08:30:49;;;;;;;16.70;11.80;;;;;;;21.66;64.63;100734.89;105927;1254;60750;-61
2023/09/15 08:33:17;;;;;;;22.80;14.60;;;;;;;21.70;64.48;100734.77;105250;1255;74846;-60
2023/09/15 08:35:46;;;;;;;17.30;14.60;;;;;;;21.71;63.64;100731.69;105286;1257;61531;-58
2023/09/15 08:38:15;;;;;;;21.00;13.30;;;;;;;21.70;63.33;100732.52;105562;1257;66257;-59
2023/09/15 08:40:51;;;;;;;16.60;12.60;;;;;;;21.72;63.62;100736.80;106115;1259;60483;-60
2023/09/15 08:43:24;;;;;;;18.30;13.70;;;;;;;21.76;63.43;100735.09;105372;1257;60536;-60
2023/09/15 08:45:55;;;;;;;17.50;14.30;;;;;;;21.79;62.63;100737.48;105482;1259;65026;-59
2023/09/15 08:48:26;;;;;;;17.80;14.00;;;;;;;21.79;62.98;100742.21;106252;1257;60541;-59
2023/09/15 08:50:53;;;;;;;15.40;13.10;;;;;;;21.80;63.30;100745.15;105817;1261;62474;-60
2023/09/15 08:53:21;;;;;;;17.10;12.90;;;;;;;21.83;63.17;100744.97;105092;1260;60569;-61
2023/09/15 08:55:49;;;;;;;16.30;13.80;;;;;;;21.86;63.09;100751.39;105038;1261;62545;-59
2023/09/15 08:58:16;;;;;;;16.00;13.90;;;;;;;21.87;63.35;100753.42;105099;1254;63744;-65
2023/09/15 09:00:44;;;;;;;15.90;13.90;;;;;;;21.87;63.46;100757.10;105182;1257;72703;-62
2023/09/15 09:03:15;;;;;;;15.10;13.50;;;;;;;21.88;62.76;100756.11;105199;1257;63807;-60
2023/09/15 09:05:45;;;;;;;18.70;13.80;;;;;;;21.93;62.01;100755.92;105290;1259;61675;-62
2023/09/15 09:08:13;;;;;;;16.10;13.50;;;;;;;21.97;61.87;100753.55;105272;1254;59384;-60
2023/09/15 09:10:53;;;;;;;17.00;13.10;;;;;;;22.00;61.34;100757.50;105377;1260;67366;-59
2023/09/15 09:13:23;;;;;;;14.90;11.40;;;;;;;22.05;61.36;100759.58;105024;1259;60508;-62
2023/09/15 09:16:10;;;;;;;15.90;13.70;;;;;;;22.11;61.03;100761.40;105048;1257;63724;-64
2023/09/15 09:18:40;;;;;;;18.30;12.90;;;;;;;22.13;60.89;100762.73;105054;1255;60454;-59
2023/09/15 09:21:08;;;;;;;18.50;13.00;;;;;;;22.09;60.21;100766.46;108988;1254;58235;-60
2023/09/15 09:23:35;;;;;;;16.00;11.80;;;;;;;22.00;60.36;100771.84;106264;1259;65564;-60
2023/09/15 09:26:10;;;;;;;16.50;11.50;;;;;;;21.94;60.89;100771.52;105091;1259;62642;-63
2023/09/15 09:28:38;;;;;;;15.20;13.10;;;;;;;21.93;60.89;100775.01;109009;1256;64333;-62
2023/09/15 09:31:09;;;;;;;16.10;12.30;;;;;;;21.92;60.89;100777.39;105629;1259;60490;-59
2023/09/15 09:33:37;;;;;;;15.00;12.00;;;;;;;21.91;61.18;100777.55;105347;1257;60552;-59
2023/09/15 09:36:12;;;;;;;16.60;11.40;;;;;;;21.92;61.61;100778.17;105247;1259;74795;-59
2023/09/15 09:38:45;;;;;;;15.30;12.40;;;;;;;21.94;61.62;100773.50;105069;1259;60550;-60
2023/09/15 09:41:14;;;;;;;17.90;12.80;;;;;;;21.98;61.72;100777.59;105182;1257;63728;-61
2023/09/15 09:43:43;;;;;;;15.30;11.80;;;;;;;22.04;61.20;100778.60;105097;1257;62185;-64
2023/09/15 09:46:10;;;;;;;14.30;11.50;;;;;;;22.09;60.62;100780.38;105445;1257;60633;-66
2023/09/15 09:48:38;;;;;;;12.50;11.20;;;;;;;22.10;60.40;100779.20;105216;1257;63794;-63
2023/09/15 09:51:06;;;;;;;13.20;10.60;;;;;;;22.08;60.61;100777.58;105063;1259;61484;-65
2023/09/15 09:53:34;;;;;;;12.70;9.70;;;;;;;22.05;60.29;100780.46;105185;1259;62696;-60
2023/09/15 09:56:02;;;;;;;14.60;10.80;;;;;;;21.98;60.09;100783.08;105574;1258;60535;-62
2023/09/15 09:58:38;;;;;;;14.40;10.50;;;;;;;21.92;60.17;100783.48;105077;1259;60560;-59
2023/09/15 10:01:06;;;;;;;12.60;8.80;;;;;;;21.87;60.37;100781.21;105411;1256;63639;-62
2023/09/15 10:03:34;;;;;;;13.50;9.30;;;;;;;21.85;60.18;100783.79;105455;1255;62003;-56
2023/09/15 10:06:03;;;;;;;11.20;8.80;;;;;;;21.83;60.01;100785.86;105062;1257;62905;-62
2023/09/15 10:08:32;;;;;;;88.50;18.70;;;;;;;21.78;59.73;100790.91;105045;1259;60460;-66
2023/09/15 10:11:00;;;;;;;11.70;8.20;;;;;;;21.75;59.96;100791.56;106442;1254;60447;-64
2023/09/15 10:13:28;;;;;;;10.50;7.90;;;;;;;21.73;60.31;100793.02;105447;1257;64858;-62
2023/09/15 10:15:56;;;;;;;11.90;8.30;;;;;;;21.80;60.31;100797.33;105636;1254;63774;-67
2023/09/15 10:18:24;;;;;;;10.70;8.20;;;;;;;21.85;59.94;100797.92;105791;1257;66052;-58
2023/09/15 10:20:53;;;;;;;11.60;8.20;;;;;;;21.88;59.82;100799.52;105285;1260;60492;-60
2023/09/15 10:23:21;;;;;;;12.40;8.20;;;;;;;21.92;59.67;100803.52;105239;1257;61081;-59
2023/09/15 10:25:52;;;;;;;10.50;8.00;;;;;;;22.04;59.93;100803.70;105817;1254;65376;-57
2023/09/15 10:28:23;;;;;;;12.00;9.00;;;;;;;22.17;59.65;100805.17;105141;1261;60452;-58
2023/09/15 10:31:08;;;;;;;9.30;7.90;;;;;;;22.26;59.35;100807.89;105084;1257;64232;-59
2023/09/15 10:33:40;;;;;;;13.80;9.10;;;;;;;22.33;58.83;100807.48;105167;1257;59428;-58
2023/09/15 10:36:11;;;;;;;10.80;7.80;;;;;;;22.37;58.38;100808.92;105053;1256;60444;-63
2023/09/15 10:38:40;;;;;;;11.60;8.20;;;;;;;22.38;58.44;100808.82;105115;1259;75062;-59
2023/09/15 10:41:10;;;;;;;9.50;7.50;;;;;;;22.39;58.26;100811.22;105374;1259;60690;-59
2023/09/15 10:43:50;;;;;;;11.00;9.00;;;;;;;22.40;58.47;100812.34;106201;1258;63678;-59
2023/09/15 10:46:18;;;;;;;11.20;8.60;;;;;;;22.43;58.50;100813.54;105941;1254;60547;-60
2023/09/15 10:48:46;;;;;;;11.00;7.70;;;;;;;22.47;58.78;100809.27;105090;1257;60662;-62
2023/09/15 10:51:17;;;;;;;11.60;7.30;;;;;;;22.52;58.59;100805.20;105320;1260;63697;-61
2023/09/15 10:53:47;;;;;;;9.00;6.50;;;;;;;22.58;58.02;100803.82;105219;1257;63771;-66
2023/09/15 10:56:16;;;;;;;11.00;7.30;;;;;;;22.63;57.12;100802.17;109002;1257;73637;-62
2023/09/15 10:58:46;;;;;;;10.60;6.70;;;;;;;22.63;57.32;100805.39;105130;1260;60993;-60
2023/09/15 11:01:15;;;;;;;9.60;6.80;;;;;;;22.63;57.70;100808.41;109048;1256;58196;-64
2023/09/15 11:03:43;;;;;;;8.30;5.80;;;;;;;22.69;58.08;100812.83;106912;1259;76651;-57
2023/09/15 11:06:12;;;;;;;7.90;5.30;;;;;;;22.81;57.80;100806.01;109059;1255;72634;-62
2023/09/15 11:08:40;;;;;;;9.80;6.60;;;;;;;22.95;57.50;100809.96;106115;1257;63679;-65
2023/09/15 11:11:09;;;;;;;10.70;6.30;;;;;;;23.06;56.62;100810.19;105154;1257;60532;-59
2023/09/15 11:13:39;;;;;;;8.50;6.50;;;;;;;23.11;55.96;100811.77;105093;1259;60524;-58
2023/09/15 11:16:09;;;;;;;9.90;6.10;;;;;;;23.11;55.80;100812.89;105567;1259;65399;-60
2023/09/15 11:18:37;;;;;;;9.60;7.20;;;;;;;23.09;56.09;100809.98;105138;1260;60632;-60
2023/09/15 11:21:06;;;;;;;9.20;7.20;;;;;;;23.07;56.25;100814.05;109011;1258;75263;-61
2023/09/15 11:23:34;;;;;;;10.80;7.70;;;;;;;23.02;55.88;100816.79;109002;1254;59454;-59